sensor_id;sensor_type;location;lat;lon;timestamp;pressure;altitude;pressure_sealevel;temperature;humidity
58761;BME280;44529;47.464;19.014;2023-06-26T00:00:38;100103.38;;;19.12;79.87
58761;BME280;44529;47.464;19.014;2023-06-26T00:03:42;100103.75;;;19.07;80.91
58761;BME280;44529;47.464;19.014;2023-06-26T00:06:44;100097.41;;;19.03;81.11
58761;BME280;44529;47.464;19.014;2023-06-26T00:09:46;100097.72;;;18.98;82.20
58761;BME280;44529;47.464;19.014;2023-06-26T00:12:49;100099.28;;;18.96;81.88
58761;BME280;44529;47.464;19.014;2023-06-26T00:15:51;100093.69;;;18.88;82.88
58761;BME280;44529;47.464;19.014;2023-06-26T00:18:53;100101.25;;;18.69;84.17
58761;BME280;44529;47.464;19.014;2023-06-26T00:21:56;100105.59;;;18.73;82.53
58761;BME280;44529;47.464;19.014;2023-06-26T00:24:58;100099.78;;;18.75;81.86
58761;BME280;44529;47.464;19.014;2023-06-26T00:28:01;100096.56;;;18.69;82.00
58761;BME280;44529;47.464;19.014;2023-06-26T00:31:04;100098.06;;;18.66;82.04
58761;BME280;44529;47.464;19.014;2023-06-26T00:34:07;100106.75;;;18.69;81.33
58761;BME280;44529;47.464;19.014;2023-06-26T00:37:09;100099.53;;;18.60;81.63
58761;BME280;44529;47.464;19.014;2023-06-26T00:40:12;100100.31;;;18.61;81.43
58761;BME280;44529;47.464;19.014;2023-06-26T00:43:14;100103.81;;;18.58;81.80
58761;BME280;44529;47.464;19.014;2023-06-26T00:46:17;100102.63;;;18.59;81.84
58761;BME280;44529;47.464;19.014;2023-06-26T00:49:20;100097.16;;;18.59;81.44
58761;BME280;44529;47.464;19.014;2023-06-26T00:52:23;100102.94;;;18.54;81.15
58761;BME280;44529;47.464;19.014;2023-06-26T00:55:27;100098.22;;;18.51;81.92
58761;BME280;44529;47.464;19.014;2023-06-26T00:58:30;100095.78;;;18.46;82.26
58761;BME280;44529;47.464;19.014;2023-06-26T01:01:32;100092.19;;;18.41;82.70
58761;BME280;44529;47.464;19.014;2023-06-26T01:04:35;100093.72;;;18.39;82.50
58761;BME280;44529;47.464;19.014;2023-06-26T01:07:40;100097.53;;;18.31;83.33
58761;BME280;44529;47.464;19.014;2023-06-26T01:10:43;100088.88;;;18.29;83.15
58761;BME280;44529;47.464;19.014;2023-06-26T01:13:46;100083.28;;;18.22;83.45
58761;BME280;44529;47.464;19.014;2023-06-26T01:16:49;100086.50;;;18.27;83.30
58761;BME280;44529;47.464;19.014;2023-06-26T01:19:53;100080.94;;;18.20;83.90
58761;BME280;44529;47.464;19.014;2023-06-26T01:29:12;100070.53;;;18.06;84.50
58761;BME280;44529;47.464;19.014;2023-06-26T01:32:17;100074.84;;;18.07;84.02
58761;BME280;44529;47.464;19.014;2023-06-26T01:35:21;100067.28;;;17.97;85.91
58761;BME280;44529;47.464;19.014;2023-06-26T01:38:23;100071.78;;;17.86;85.92
58761;BME280;44529;47.464;19.014;2023-06-26T01:41:26;100063.94;;;17.84;85.78
58761;BME280;44529;47.464;19.014;2023-06-26T01:44:29;100065.44;;;17.82;85.94
58761;BME280;44529;47.464;19.014;2023-06-26T01:47:35;100070.00;;;17.74;87.36
58761;BME280;44529;47.464;19.014;2023-06-26T01:50:41;100069.34;;;17.62;88.58
58761;BME280;44529;47.464;19.014;2023-06-26T01:53:46;100068.06;;;17.55;88.54
58761;BME280;44529;47.464;19.014;2023-06-26T01:56:53;100080.87;;;17.51;88.83
58761;BME280;44529;47.464;19.014;2023-06-26T01:59:56;100082.81;;;17.51;88.51
58761;BME280;44529;47.464;19.014;2023-06-26T02:02:59;100087.00;;;17.45;89.27
58761;BME280;44529;47.464;19.014;2023-06-26T02:06:01;100088.78;;;17.37;89.09
58761;BME280;44529;47.464;19.014;2023-06-26T02:09:04;100079.25;;;17.27;90.28
58761;BME280;44529;47.464;19.014;2023-06-26T02:12:06;100085.00;;;17.22;89.96
58761;BME280;44529;47.464;19.014;2023-06-26T02:15:09;100086.66;;;17.27;88.73
58761;BME280;44529;47.464;19.014;2023-06-26T02:18:13;100082.31;;;17.26;88.62
58761;BME280;44529;47.464;19.014;2023-06-26T02:21:16;100083.84;;;17.23;88.38
58761;BME280;44529;47.464;19.014;2023-06-26T02:24:18;100078.75;;;17.22;87.89
58761;BME280;44529;47.464;19.014;2023-06-26T02:27:20;100088.16;;;17.24;88.15
58761;BME280;44529;47.464;19.014;2023-06-26T02:30:23;100088.09;;;17.21;87.96
58761;BME280;44529;47.464;19.014;2023-06-26T02:33:25;100079.59;;;17.26;87.83
58761;BME280;44529;47.464;19.014;2023-06-26T02:36:27;100096.22;;;17.17;88.55
58761;BME280;44529;47.464;19.014;2023-06-26T02:39:30;100092.41;;;17.22;88.03
58761;BME280;44529;47.464;19.014;2023-06-26T02:42:34;100101.41;;;17.22;87.37
58761;BME280;44529;47.464;19.014;2023-06-26T02:45:36;100100.84;;;17.13;88.18
58761;BME280;44529;47.464;19.014;2023-06-26T02:48:40;100098.53;;;17.15;88.32
58761;BME280;44529;47.464;19.014;2023-06-26T02:51:42;100096.50;;;17.12;88.47
58761;BME280;44529;47.464;19.014;2023-06-26T02:54:45;100094.41;;;17.05;89.44
58761;BME280;44529;47.464;19.014;2023-06-26T02:57:47;100107.28;;;17.05;90.06
58761;BME280;44529;47.464;19.014;2023-06-26T03:00:50;100107.63;;;17.03;90.20
58761;BME280;44529;47.464;19.014;2023-06-26T03:03:54;100109.22;;;17.04;90.31
58761;BME280;44529;47.464;19.014;2023-06-26T03:06:56;100109.22;;;17.04;90.57
58761;BME280;44529;47.464;19.014;2023-06-26T03:09:59;100111.37;;;16.95;91.54
58761;BME280;44529;47.464;19.014;2023-06-26T03:13:02;100107.84;;;16.95;91.94
58761;BME280;44529;47.464;19.014;2023-06-26T03:16:05;100108.66;;;16.95;92.67
58761;BME280;44529;47.464;19.014;2023-06-26T03:19:07;100107.50;;;16.96;92.76
58761;BME280;44529;47.464;19.014;2023-06-26T03:22:11;100105.19;;;16.98;92.08
58761;BME280;44529;47.464;19.014;2023-06-26T03:25:13;100106.13;;;17.06;91.81
58761;BME280;44529;47.464;19.014;2023-06-26T03:28:16;100119.44;;;17.08;91.55
58761;BME280;44529;47.464;19.014;2023-06-26T03:31:19;100115.97;;;17.11;91.75
58761;BME280;44529;47.464;19.014;2023-06-26T03:34:21;100109.09;;;17.17;92.66
58761;BME280;44529;47.464;19.014;2023-06-26T03:37:24;100100.19;;;17.20;92.11
58761;BME280;44529;47.464;19.014;2023-06-26T03:40:26;100111.97;;;17.24;91.81
58761;BME280;44529;47.464;19.014;2023-06-26T03:43:29;100108.00;;;17.21;94.06
58761;BME280;44529;47.464;19.014;2023-06-26T03:46:32;100108.94;;;17.29;93.12
58761;BME280;44529;47.464;19.014;2023-06-26T03:49:34;100111.13;;;17.20;92.51
58761;BME280;44529;47.464;19.014;2023-06-26T03:52:37;100113.53;;;17.25;91.37
58761;BME280;44529;47.464;19.014;2023-06-26T03:55:39;100119.75;;;17.22;91.86
58761;BME280;44529;47.464;19.014;2023-06-26T03:58:42;100126.69;;;17.19;91.35
58761;BME280;44529;47.464;19.014;2023-06-26T04:01:45;100123.03;;;17.12;91.31
58761;BME280;44529;47.464;19.014;2023-06-26T04:04:48;100120.56;;;17.06;91.26
58761;BME280;44529;47.464;19.014;2023-06-26T04:07:51;100123.53;;;16.98;91.63
58761;BME280;44529;47.464;19.014;2023-06-26T04:10:54;100123.09;;;16.96;91.85
58761;BME280;44529;47.464;19.014;2023-06-26T04:13:59;100123.53;;;16.98;91.38
58761;BME280;44529;47.464;19.014;2023-06-26T04:17:02;100127.41;;;16.97;91.60
58761;BME280;44529;47.464;19.014;2023-06-26T04:20:05;100122.72;;;16.97;91.86
58761;BME280;44529;47.464;19.014;2023-06-26T04:23:11;100119.28;;;17.00;91.05
58761;BME280;44529;47.464;19.014;2023-06-26T04:26:13;100127.91;;;17.02;91.19
58761;BME280;44529;47.464;19.014;2023-06-26T04:29:16;100128.97;;;16.98;92.38
58761;BME280;44529;47.464;19.014;2023-06-26T04:32:19;100124.75;;;17.00;92.17
58761;BME280;44529;47.464;19.014;2023-06-26T04:35:21;100127.34;;;17.13;91.11
58761;BME280;44529;47.464;19.014;2023-06-26T04:38:23;100122.31;;;17.15;91.04
58761;BME280;44529;47.464;19.014;2023-06-26T04:41:26;100126.62;;;17.16;92.19
58761;BME280;44529;47.464;19.014;2023-06-26T04:44:28;100123.16;;;17.19;92.06
58761;BME280;44529;47.464;19.014;2023-06-26T04:47:31;100131.50;;;17.26;91.60
58761;BME280;44529;47.464;19.014;2023-06-26T04:50:33;100130.91;;;17.32;91.88
58761;BME280;44529;47.464;19.014;2023-06-26T04:53:35;100134.09;;;17.38;92.14
58761;BME280;44529;47.464;19.014;2023-06-26T04:56:38;100138.13;;;17.44;92.20
58761;BME280;44529;47.464;19.014;2023-06-26T04:59:43;100140.22;;;17.51;92.80
58761;BME280;44529;47.464;19.014;2023-06-26T05:02:46;100136.84;;;17.57;93.50
58761;BME280;44529;47.464;19.014;2023-06-26T05:05:48;100128.78;;;17.65;93.12
58761;BME280;44529;47.464;19.014;2023-06-26T05:08:51;100138.75;;;17.73;93.44
58761;BME280;44529;47.464;19.014;2023-06-26T05:11:53;100133.81;;;17.82;92.86
58761;BME280;44529;47.464;19.014;2023-06-26T05:14:56;100136.63;;;17.85;92.98
58761;BME280;44529;47.464;19.014;2023-06-26T05:17:58;100137.84;;;17.88;93.60
58761;BME280;44529;47.464;19.014;2023-06-26T05:21:01;100132.94;;;17.97;93.40
58761;BME280;44529;47.464;19.014;2023-06-26T05:24:05;100131.03;;;18.01;93.95
58761;BME280;44529;47.464;19.014;2023-06-26T05:27:08;100126.06;;;18.07;93.75
58761;BME280;44529;47.464;19.014;2023-06-26T05:30:11;100130.16;;;18.17;93.33
58761;BME280;44529;47.464;19.014;2023-06-26T05:33:14;100130.97;;;18.21;93.40
58761;BME280;44529;47.464;19.014;2023-06-26T05:36:20;100129.94;;;18.29;93.32
58761;BME280;44529;47.464;19.014;2023-06-26T05:39:23;100132.44;;;18.37;93.05
58761;BME280;44529;47.464;19.014;2023-06-26T05:42:27;100129.03;;;18.44;92.91
58761;BME280;44529;47.464;19.014;2023-06-26T05:45:29;100130.78;;;18.56;92.67
58761;BME280;44529;47.464;19.014;2023-06-26T05:48:32;100126.69;;;18.69;92.17
58761;BME280;44529;47.464;19.014;2023-06-26T05:51:35;100123.31;;;18.79;92.00
58761;BME280;44529;47.464;19.014;2023-06-26T05:54:38;100134.81;;;18.88;91.73
58761;BME280;44529;47.464;19.014;2023-06-26T05:57:41;100131.41;;;18.99;91.70
58761;BME280;44529;47.464;19.014;2023-06-26T06:00:44;100127.66;;;19.10;90.11
58761;BME280;44529;47.464;19.014;2023-06-26T06:03:46;100127.00;;;19.20;89.67
58761;BME280;44529;47.464;19.014;2023-06-26T06:06:51;100131.81;;;19.31;89.47
58761;BME280;44529;47.464;19.014;2023-06-26T06:09:54;100129.59;;;19.40;87.57
58761;BME280;44529;47.464;19.014;2023-06-26T06:12:56;100120.66;;;19.46;87.54
58761;BME280;44529;47.464;19.014;2023-06-26T06:15:59;100123.88;;;19.56;86.24
58761;BME280;44529;47.464;19.014;2023-06-26T06:19:01;100125.22;;;19.69;84.96
58761;BME280;44529;47.464;19.014;2023-06-26T06:22:05;100124.13;;;19.77;84.50
58761;BME280;44529;47.464;19.014;2023-06-26T06:25:08;100129.34;;;19.86;83.14
58761;BME280;44529;47.464;19.014;2023-06-26T06:28:11;100127.06;;;19.95;80.64
58761;BME280;44529;47.464;19.014;2023-06-26T06:31:13;100129.50;;;20.04;80.21
58761;BME280;44529;47.464;19.014;2023-06-26T06:34:16;100129.59;;;20.11;79.74
58761;BME280;44529;47.464;19.014;2023-06-26T06:37:18;100127.34;;;20.23;79.15
58761;BME280;44529;47.464;19.014;2023-06-26T06:40:21;100133.62;;;20.27;79.60
58761;BME280;44529;47.464;19.014;2023-06-26T06:43:24;100134.47;;;20.32;79.33
58761;BME280;44529;47.464;19.014;2023-06-26T06:46:27;100125.09;;;20.40;77.95
58761;BME280;44529;47.464;19.014;2023-06-26T06:49:29;100139.31;;;20.45;78.59
58761;BME280;44529;47.464;19.014;2023-06-26T06:52:32;100132.31;;;20.55;77.77
58761;BME280;44529;47.464;19.014;2023-06-26T06:55:34;100136.69;;;20.63;76.23
58761;BME280;44529;47.464;19.014;2023-06-26T06:58:37;100133.19;;;20.70;74.31
58761;BME280;44529;47.464;19.014;2023-06-26T07:01:40;100138.78;;;20.80;72.30
58761;BME280;44529;47.464;19.014;2023-06-26T07:04:43;100138.87;;;20.98;69.32
58761;BME280;44529;47.464;19.014;2023-06-26T07:07:45;100138.97;;;21.16;70.06
58761;BME280;44529;47.464;19.014;2023-06-26T07:10:48;100150.47;;;21.32;70.55
58761;BME280;44529;47.464;19.014;2023-06-26T07:13:50;100137.19;;;21.56;67.30
58761;BME280;44529;47.464;19.014;2023-06-26T07:16:52;100138.44;;;21.83;67.09
58761;BME280;44529;47.464;19.014;2023-06-26T07:19:54;100135.37;;;22.10;67.92
58761;BME280;44529;47.464;19.014;2023-06-26T07:22:57;100129.84;;;22.28;66.78
58761;BME280;44529;47.464;19.014;2023-06-26T07:25:59;100132.59;;;22.53;66.63
58761;BME280;44529;47.464;19.014;2023-06-26T07:29:02;100132.19;;;22.72;62.70
58761;BME280;44529;47.464;19.014;2023-06-26T07:32:05;100135.69;;;23.01;65.86
58761;BME280;44529;47.464;19.014;2023-06-26T07:35:07;100129.00;;;23.06;62.53
58761;BME280;44529;47.464;19.014;2023-06-26T07:38:10;100134.38;;;23.34;63.39
58761;BME280;44529;47.464;19.014;2023-06-26T07:45:59;100131.41;;;23.81;60.40
58761;BME280;44529;47.464;19.014;2023-06-26T07:53:46;100137.78;;;24.29;57.54
58761;BME280;44529;47.464;19.014;2023-06-26T07:56:59;100136.06;;;24.46;55.68
58761;BME280;44529;47.464;19.014;2023-06-26T08:00:02;100133.50;;;24.70;56.55
58761;BME280;44529;47.464;19.014;2023-06-26T08:03:15;100136.53;;;24.82;55.27
58761;BME280;44529;47.464;19.014;2023-06-26T08:06:37;100127.12;;;25.14;53.73
58761;BME280;44529;47.464;19.014;2023-06-26T08:09:48;100129.94;;;25.41;52.19
58761;BME280;44529;47.464;19.014;2023-06-26T08:12:54;100134.00;;;25.63;52.02
58761;BME280;44529;47.464;19.014;2023-06-26T08:15:57;100134.72;;;25.67;52.57
58761;BME280;44529;47.464;19.014;2023-06-26T08:19:00;100127.12;;;25.14;52.52
58761;BME280;44529;47.464;19.014;2023-06-26T08:22:03;100128.41;;;25.06;52.09
58761;BME280;44529;47.464;19.014;2023-06-26T08:25:06;100129.81;;;25.18;52.22
58761;BME280;44529;47.464;19.014;2023-06-26T08:28:08;100136.28;;;25.07;51.97
58761;BME280;44529;47.464;19.014;2023-06-26T08:31:11;100131.97;;;25.06;52.70
58761;BME280;44529;47.464;19.014;2023-06-26T08:34:13;100130.84;;;25.61;52.58
58761;BME280;44529;47.464;19.014;2023-06-26T08:37:15;100135.75;;;25.81;50.95
58761;BME280;44529;47.464;19.014;2023-06-26T08:40:18;100131.00;;;25.51;50.75
58761;BME280;44529;47.464;19.014;2023-06-26T08:43:23;100134.31;;;25.08;54.42
58761;BME280;44529;47.464;19.014;2023-06-26T08:46:26;100133.41;;;24.80;53.85
58761;BME280;44529;47.464;19.014;2023-06-26T08:49:47;100135.66;;;25.57;52.59
58761;BME280;44529;47.464;19.014;2023-06-26T08:53:14;100131.94;;;25.67;52.08
58761;BME280;44529;47.464;19.014;2023-06-26T08:56:25;100131.69;;;25.28;54.15
58761;BME280;44529;47.464;19.014;2023-06-26T08:59:30;100126.06;;;25.01;54.74
58761;BME280;44529;47.464;19.014;2023-06-26T09:02:33;100122.34;;;24.77;55.09
58761;BME280;44529;47.464;19.014;2023-06-26T09:05:35;100122.94;;;25.33;53.14
58761;BME280;44529;47.464;19.014;2023-06-26T09:08:38;100127.53;;;26.51;49.75
58761;BME280;44529;47.464;19.014;2023-06-26T09:11:40;100121.56;;;27.36;46.53
58761;BME280;44529;47.464;19.014;2023-06-26T09:14:44;100118.16;;;28.17;44.38
58761;BME280;44529;47.464;19.014;2023-06-26T09:17:48;100114.22;;;28.63;43.49
58761;BME280;44529;47.464;19.014;2023-06-26T09:20:51;100116.41;;;29.01;43.83
58761;BME280;44529;47.464;19.014;2023-06-26T09:23:56;100114.47;;;28.98;43.26
58761;BME280;44529;47.464;19.014;2023-06-26T09:26:58;100120.72;;;29.31;42.26
58761;BME280;44529;47.464;19.014;2023-06-26T09:30:03;100119.25;;;29.26;42.23
58761;BME280;44529;47.464;19.014;2023-06-26T09:33:16;100110.69;;;29.46;43.30
58761;BME280;44529;47.464;19.014;2023-06-26T09:36:26;100117.78;;;29.76;40.91
58761;BME280;44529;47.464;19.014;2023-06-26T09:39:30;100111.28;;;29.54;41.95
58761;BME280;44529;47.464;19.014;2023-06-26T09:42:33;100113.41;;;29.62;41.15
58761;BME280;44529;47.464;19.014;2023-06-26T09:45:39;100113.78;;;29.35;41.27
58761;BME280;44529;47.464;19.014;2023-06-26T09:48:41;100105.37;;;29.52;42.44
58761;BME280;44529;47.464;19.014;2023-06-26T09:51:44;100102.38;;;29.72;41.17
58761;BME280;44529;47.464;19.014;2023-06-26T09:54:46;100099.66;;;29.42;42.16
58761;BME280;44529;47.464;19.014;2023-06-26T09:57:50;100103.16;;;28.59;43.32
58761;BME280;44529;47.464;19.014;2023-06-26T10:00:52;100102.25;;;28.17;43.70
58761;BME280;44529;47.464;19.014;2023-06-26T10:03:56;100101.19;;;27.78;44.27
58761;BME280;44529;47.464;19.014;2023-06-26T10:07:04;100100.56;;;27.35;46.71
58761;BME280;44529;47.464;19.014;2023-06-26T10:10:11;100095.81;;;27.15;48.19
58761;BME280;44529;47.464;19.014;2023-06-26T10:13:22;100091.78;;;26.77;48.49
58761;BME280;44529;47.464;19.014;2023-06-26T10:16:33;100093.03;;;26.52;49.76
58761;BME280;44529;47.464;19.014;2023-06-26T10:19:41;100093.28;;;26.38;50.22
58761;BME280;44529;47.464;19.014;2023-06-26T10:22:46;100091.72;;;26.37;49.83
58761;BME280;44529;47.464;19.014;2023-06-26T10:25:51;100087.31;;;27.03;51.97
58761;BME280;44529;47.464;19.014;2023-06-26T10:28:54;100083.25;;;27.83;49.74
58761;BME280;44529;47.464;19.014;2023-06-26T10:32:00;100077.66;;;28.32;46.65
58761;BME280;44529;47.464;19.014;2023-06-26T10:35:06;100076.94;;;28.60;47.13
58761;BME280;44529;47.464;19.014;2023-06-26T10:38:09;100084.66;;;28.98;45.08
58761;BME280;44529;47.464;19.014;2023-06-26T10:41:13;100073.53;;;29.24;45.94
58761;BME280;44529;47.464;19.014;2023-06-26T10:44:18;100065.88;;;29.28;43.62
58761;BME280;44529;47.464;19.014;2023-06-26T10:47:30;100076.94;;;29.44;43.47
58761;BME280;44529;47.464;19.014;2023-06-26T10:50:35;100078.13;;;29.30;43.38
58761;BME280;44529;47.464;19.014;2023-06-26T10:53:38;100079.47;;;28.55;44.88
58761;BME280;44529;47.464;19.014;2023-06-26T10:56:47;100079.81;;;27.75;46.29
58761;BME280;44529;47.464;19.014;2023-06-26T11:00:09;100078.56;;;27.04;47.59
58761;BME280;44529;47.464;19.014;2023-06-26T11:03:23;100079.12;;;26.76;49.34
58761;BME280;44529;47.464;19.014;2023-06-26T11:06:26;100081.69;;;26.66;50.05
58761;BME280;44529;47.464;19.014;2023-06-26T11:09:32;100079.72;;;26.43;49.28
58761;BME280;44529;47.464;19.014;2023-06-26T11:12:58;100091.72;;;26.37;49.34
58761;BME280;44529;47.464;19.014;2023-06-26T11:16:01;100083.75;;;26.62;49.78
58761;BME280;44529;47.464;19.014;2023-06-26T11:19:04;100084.19;;;27.00;47.67
58761;BME280;44529;47.464;19.014;2023-06-26T11:22:06;100075.06;;;27.56;46.04
58761;BME280;44529;47.464;19.014;2023-06-26T11:25:10;100067.16;;;27.91;47.28
58761;BME280;44529;47.464;19.014;2023-06-26T11:28:13;100060.38;;;28.08;47.42
58761;BME280;44529;47.464;19.014;2023-06-26T11:31:29;100055.84;;;28.30;45.86
58761;BME280;44529;47.464;19.014;2023-06-26T11:34:34;100051.69;;;28.06;45.74
58761;BME280;44529;47.464;19.014;2023-06-26T11:37:37;100057.41;;;28.31;46.18
58761;BME280;44529;47.464;19.014;2023-06-26T11:40:39;100058.00;;;28.39;43.96
58761;BME280;44529;47.464;19.014;2023-06-26T11:43:42;100053.72;;;28.51;45.27
58761;BME280;44529;47.464;19.014;2023-06-26T11:46:45;100054.63;;;28.48;42.36
58761;BME280;44529;47.464;19.014;2023-06-26T11:49:49;100047.78;;;28.03;43.78
58761;BME280;44529;47.464;19.014;2023-06-26T11:52:58;100049.69;;;27.74;45.45
58761;BME280;44529;47.464;19.014;2023-06-26T11:56:07;100055.62;;;27.40;46.50
58761;BME280;44529;47.464;19.014;2023-06-26T11:59:11;100054.50;;;27.17;46.37
58761;BME280;44529;47.464;19.014;2023-06-26T12:02:14;100050.94;;;26.97;48.18
58761;BME280;44529;47.464;19.014;2023-06-26T12:05:17;100047.69;;;26.82;47.90
58761;BME280;44529;47.464;19.014;2023-06-26T12:08:20;100047.50;;;26.73;48.49
58761;BME280;44529;47.464;19.014;2023-06-26T12:11:23;100049.22;;;26.43;49.49
58761;BME280;44529;47.464;19.014;2023-06-26T12:14:26;100044.72;;;26.30;50.39
58761;BME280;44529;47.464;19.014;2023-06-26T12:17:32;100045.41;;;26.57;49.75
58761;BME280;44529;47.464;19.014;2023-06-26T12:20:40;100044.19;;;26.98;48.80
58761;BME280;44529;47.464;19.014;2023-06-26T12:23:43;100039.91;;;27.33;46.55
58761;BME280;44529;47.464;19.014;2023-06-26T12:26:47;100035.12;;;27.70;47.12
58761;BME280;44529;47.464;19.014;2023-06-26T12:29:52;100035.28;;;27.95;43.01
58761;BME280;44529;47.464;19.014;2023-06-26T12:32:55;100038.78;;;27.83;43.94
58761;BME280;44529;47.464;19.014;2023-06-26T12:35:58;100040.41;;;27.97;43.73
58761;BME280;44529;47.464;19.014;2023-06-26T12:39:00;100033.63;;;27.98;44.52
58761;BME280;44529;47.464;19.014;2023-06-26T12:42:03;100036.03;;;27.63;46.07
58761;BME280;44529;47.464;19.014;2023-06-26T12:45:12;100041.63;;;27.43;46.14
58761;BME280;44529;47.464;19.014;2023-06-26T12:48:39;100045.84;;;27.15;46.31
58761;BME280;44529;47.464;19.014;2023-06-26T12:51:49;100036.13;;;27.04;46.39
58761;BME280;44529;47.464;19.014;2023-06-26T12:54:53;100032.84;;;26.92;46.89
58761;BME280;44529;47.464;19.014;2023-06-26T12:57:56;100034.72;;;26.95;47.43
58761;BME280;44529;47.464;19.014;2023-06-26T13:00:59;100026.69;;;27.21;47.76
58761;BME280;44529;47.464;19.014;2023-06-26T13:04:02;100023.06;;;27.40;47.39
58761;BME280;44529;47.464;19.014;2023-06-26T13:07:09;100026.09;;;27.30;46.19
58761;BME280;44529;47.464;19.014;2023-06-26T13:10:11;100028.34;;;27.18;46.19
58761;BME280;44529;47.464;19.014;2023-06-26T13:13:14;100022.56;;;27.09;46.91
58761;BME280;44529;47.464;19.014;2023-06-26T13:16:16;100024.69;;;27.02;47.54
58761;BME280;44529;47.464;19.014;2023-06-26T13:19:20;100024.34;;;26.99;47.65
58761;BME280;44529;47.464;19.014;2023-06-26T13:22:23;100018.88;;;26.96;47.59
58761;BME280;44529;47.464;19.014;2023-06-26T13:25:25;100016.69;;;27.07;48.28
58761;BME280;44529;47.464;19.014;2023-06-26T13:28:27;100016.81;;;27.36;47.88
58761;BME280;44529;47.464;19.014;2023-06-26T13:31:30;100007.91;;;27.61;46.77
58761;BME280;44529;47.464;19.014;2023-06-26T13:34:32;100010.97;;;27.83;45.66
58761;BME280;44529;47.464;19.014;2023-06-26T13:37:35;99999.09;;;27.83;43.73
58761;BME280;44529;47.464;19.014;2023-06-26T13:40:38;99997.06;;;27.99;43.85
58761;BME280;44529;47.464;19.014;2023-06-26T13:43:41;99999.13;;;28.12;44.12
58761;BME280;44529;47.464;19.014;2023-06-26T13:46:44;99996.78;;;28.10;43.85
58761;BME280;44529;47.464;19.014;2023-06-26T13:49:46;99995.03;;;28.16;44.46
58761;BME280;44529;47.464;19.014;2023-06-26T13:52:48;100002.53;;;28.03;45.64
58761;BME280;44529;47.464;19.014;2023-06-26T13:55:51;99996.97;;;27.87;45.75
58761;BME280;44529;47.464;19.014;2023-06-26T13:58:53;99989.84;;;27.69;46.24
58761;BME280;44529;47.464;19.014;2023-06-26T14:01:58;99989.69;;;27.44;47.01
58761;BME280;44529;47.464;19.014;2023-06-26T14:05:01;99991.53;;;27.31;46.48
58761;BME280;44529;47.464;19.014;2023-06-26T14:08:04;99992.25;;;27.18;46.73
58761;BME280;44529;47.464;19.014;2023-06-26T14:11:07;99991.38;;;27.21;46.62
58761;BME280;44529;47.464;19.014;2023-06-26T14:14:09;99982.88;;;27.29;46.49
58761;BME280;44529;47.464;19.014;2023-06-26T14:17:12;99980.72;;;27.52;47.33
58761;BME280;44529;47.464;19.014;2023-06-26T14:20:17;99981.78;;;27.75;46.44
58761;BME280;44529;47.464;19.014;2023-06-26T14:23:23;99986.47;;;27.94;46.35
58761;BME280;44529;47.464;19.014;2023-06-26T14:26:25;99987.41;;;28.04;45.29
58761;BME280;44529;47.464;19.014;2023-06-26T14:29:27;99984.44;;;28.11;45.25
58761;BME280;44529;47.464;19.014;2023-06-26T14:32:30;99985.81;;;28.19;43.38
58761;BME280;44529;47.464;19.014;2023-06-26T14:35:33;99989.09;;;28.14;43.46
58761;BME280;44529;47.464;19.014;2023-06-26T14:38:35;99990.34;;;28.13;43.88
58761;BME280;44529;47.464;19.014;2023-06-26T14:41:38;99989.50;;;28.00;45.00
58761;BME280;44529;47.464;19.014;2023-06-26T14:44:40;99980.47;;;27.96;45.28
58761;BME280;44529;47.464;19.014;2023-06-26T14:47:43;99986.28;;;28.01;43.53
58761;BME280;44529;47.464;19.014;2023-06-26T14:50:45;99991.22;;;27.94;43.99
58761;BME280;44529;47.464;19.014;2023-06-26T14:53:48;99985.94;;;27.67;45.51
58761;BME280;44529;47.464;19.014;2023-06-26T14:56:50;99982.81;;;27.32;45.39
58761;BME280;44529;47.464;19.014;2023-06-26T14:59:53;99981.50;;;27.20;46.58
58761;BME280;44529;47.464;19.014;2023-06-26T15:02:55;99975.47;;;27.06;47.36
58761;BME280;44529;47.464;19.014;2023-06-26T15:06:03;99979.22;;;26.95;47.34
58761;BME280;44529;47.464;19.014;2023-06-26T15:09:05;99977.81;;;26.87;46.93
58761;BME280;44529;47.464;19.014;2023-06-26T15:12:08;99981.03;;;26.86;46.95
58761;BME280;44529;47.464;19.014;2023-06-26T15:15:10;99967.38;;;26.75;47.62
58761;BME280;44529;47.464;19.014;2023-06-26T15:18:13;99970.63;;;26.90;46.50
58761;BME280;44529;47.464;19.014;2023-06-26T15:21:15;99964.38;;;27.06;45.62
58761;BME280;44529;47.464;19.014;2023-06-26T15:24:17;99969.25;;;27.18;45.44
58761;BME280;44529;47.464;19.014;2023-06-26T15:27:20;99956.66;;;27.13;46.15
58761;BME280;44529;47.464;19.014;2023-06-26T15:30:25;99964.06;;;27.00;46.25
58761;BME280;44529;47.464;19.014;2023-06-26T15:33:28;99958.69;;;26.93;46.55
58761;BME280;44529;47.464;19.014;2023-06-26T15:36:30;99956.53;;;27.00;46.54
58761;BME280;44529;47.464;19.014;2023-06-26T15:39:32;99956.56;;;27.17;46.26
58761;BME280;44529;47.464;19.014;2023-06-26T15:42:46;99960.50;;;27.19;46.05
58761;BME280;44529;47.464;19.014;2023-06-26T15:45:49;99957.63;;;27.23;46.64
58761;BME280;44529;47.464;19.014;2023-06-26T15:48:51;99953.81;;;27.33;46.01
58761;BME280;44529;47.464;19.014;2023-06-26T15:51:53;99945.38;;;27.37;44.88
58761;BME280;44529;47.464;19.014;2023-06-26T15:54:56;99949.22;;;27.26;44.91
58761;BME280;44529;47.464;19.014;2023-06-26T15:57:58;99945.72;;;27.22;44.92
58761;BME280;44529;47.464;19.014;2023-06-26T16:01:02;99938.09;;;27.26;44.49
58761;BME280;44529;47.464;19.014;2023-06-26T16:04:05;99942.28;;;27.35;44.09